Flight Track Log - Related Links

Times and Time Zones

All times are in EDT time to prevent confusion due to time zone crossing. See the SWA1903 flight status page for this flight to view local times or setup timezone preferences in your user account.

Time Position Orientation Groundspeed Altitude Reporting Facility
EDT Latitude Longitude Course Direction KTS MPH feet Rate Location/Type
Wed 07:33:23 AM 39.2000 -76.8500 284° West 253 291 6,600  Level Potomac TRACON
Wed 07:34:18 AM 39.2167 -76.9333 284° West 256 295 10,400 3,178 Climbing Potomac TRACON
Wed 07:36:45 AM 39.2761 -77.1814 287° West 323 372 17,300 2,856 Climbing Washington Center
Wed 07:37:00 AM 39.2459 -77.1792 322° Northwest  Level FlightAware Approximate
Wed 07:37:46 AM 39.3206 -77.2844 299° West 348 400 20,300  Level Washington Center
Wed 07:38:46 AM 39.3708 -77.3956 300° West 354 407 23,100 2,628 Climbing Washington Center
Wed 07:39:47 AM 39.4192 -77.5125 298° West 360 414 25,600 2,218 Climbing Washington Center
Wed 07:40:45 AM 39.4692 -77.6347 298° West 370 426 27,500 2,319 Climbing Washington Center
Wed 07:41:46 AM 39.5086 -77.7650 291° West 381 438 30,200 2,167 Climbing Washington Center
Wed 07:43:45 AM 39.5858 -78.0161 292° West 378 435 34,000 1,274 Climbing Cleveland Center
Wed 07:44:45 AM 39.6219 -78.1386 291° West 372 428 34,000  Level Cleveland Center
Wed 07:45:45 AM 39.6600 -78.2614 292° West 367 422 34,000  Level Cleveland Center
Wed 07:46:45 AM 39.6958 -78.3842 291° West 367 422 34,000  Level Cleveland Center
Wed 07:47:45 AM 39.7336 -78.5100 291° West 367 422 34,000  Level Cleveland Center
Wed 07:48:45 AM 39.7775 -78.6328 295° West 367 422 34,000  Level Cleveland Center
Wed 07:49:45 AM 39.8272 -78.7450 300° West 367 422 34,000  Level Cleveland Center
Wed 07:50:45 AM 39.8811 -78.8569 302° West 367 422 34,000  Level Cleveland Center
Wed 07:51:45 AM 39.9433 -78.9828 303° West 372 428 34,000  Level Cleveland Center
Wed 07:52:45 AM 39.9969 -79.0981 301° West 378 435 34,000  Level Cleveland Center
Wed 07:53:45 AM 40.0528 -79.2133 302° West 378 435 34,000  Level Cleveland Center
Wed 07:54:45 AM 40.1039 -79.3264 301° West 373 429 34,000  Level Cleveland Center
Wed 07:55:45 AM 40.1572 -79.4422 301° West 373 429 34,000  Level Cleveland Center
Wed 07:56:45 AM 40.2106 -79.5581 301° West 373 429 34,000  Level Cleveland Center
Wed 07:57:45 AM 40.2636 -79.6769 300° West 373 429 34,000  Level Cleveland Center
Wed 07:58:45 AM 40.3167 -79.7908 301° West 373 429 34,000  Level Cleveland Center
Wed 07:59:45 AM 40.3694 -79.9044 301° West 373 429 34,000  Level Cleveland Center
Wed 08:00:45 AM 40.4158 -80.0131 299° West 373 429 34,000  Level Cleveland Center
Wed 08:01:45 AM 40.4686 -80.1300 301° West 380 437 34,000 -250 Level Cleveland Center
Wed 08:02:45 AM 40.5233 -80.2500 301° West 380 437 33,500 -1,300 Descending Cleveland Center
Wed 08:03:45 AM 40.5756 -80.3589 302° West 369 425 31,400 -1,750 Descending Cleveland Center
Wed 08:04:45 AM 40.6236 -80.4683 300° West 357 411 30,000 -700 Descending Cleveland Center
Wed 08:05:45 AM 40.6739 -80.5775 301° West 352 405 30,000  Level Cleveland Center
Wed 08:06:45 AM 40.7239 -80.6900 300° West 352 405 30,000  Level Cleveland Center
Wed 08:07:45 AM 40.7736 -80.8025 300° West 357 411 30,000  Level Cleveland Center
Wed 08:08:45 AM 40.8256 -80.9206 300° West 357 411 30,000 -300 Level Cleveland Center
Wed 08:09:45 AM 40.8750 -81.0361 300° West 357 411 29,400 -850 Descending Cleveland Center
Wed 08:10:45 AM 40.9247 -81.1464 301° West 357 411 28,300 -700 Descending Cleveland Center
Wed 08:11:45 AM 40.9719 -81.2569 300° West 357 411 28,000 -300 Descending Cleveland Center
Wed 08:12:45 AM 41.0192 -81.3647 300° West 352 405 27,700 -700 Descending Cleveland Center
Wed 08:13:45 AM 41.0644 -81.4700 300° West 352 405 26,600 -1,100 Descending Cleveland Center
Wed 08:14:45 AM 41.1092 -81.5781 299° West 342 394 25,500 -1,100 Descending Cleveland Center
Wed 08:15:45 AM 41.1564 -81.6836 301° West 336 387 24,400 -750 Descending Cleveland Center
Wed 08:16:45 AM 41.1969 -81.7864 298° West 331 381 24,000 -200 Descending Cleveland Center
Wed 08:17:45 AM 41.2439 -81.8867 302° West 325 374 24,000  Level Cleveland Center
Wed 08:18:45 AM 41.2864 -81.9869 299° West 325 374 24,000  Level Cleveland Center
Wed 08:19:45 AM 41.3308 -82.0903 300° West 320 368 24,000 -100 Level Cleveland Center
Wed 08:20:45 AM 41.3794 -82.2019 300° West 320 368 23,800 -1,050 Descending Cleveland Center
Wed 08:21:45 AM 41.4364 -82.2947 309° West 320 368 21,900 -1,850 Descending Cleveland Center
Wed 08:22:45 AM 41.4892 -82.3850 308° West 320 368 20,100 -1,800 Descending Cleveland Center
Wed 08:23:45 AM 41.5419 -82.4725 309° West 314 361 18,300 -1,850 Descending Cleveland Center
Wed 08:24:45 AM 41.5947 -82.5600 309° West 314 361 16,400 -1,840 Descending Cleveland Center
Wed 08:25:00 AM 41.6069 -82.5797 310° West 296 341 16,000 -1,600 Descending Cleveland Center
Wed 08:25:45 AM 41.6433 -82.6450 307° West 303 349 14,800 -1,770 Descending Cleveland Center
Wed 08:26:01 AM 41.6617 -82.6678 317° Northwest 288 331 14,200 -1,800 Descending Cleveland Center
Wed 08:26:45 AM 41.6939 -82.7300 305° West 303 349 13,000 -1,770 Descending Cleveland Center
Wed 08:27:02 AM 41.7100 -82.7556 310° West 290 334 12,400 -1,000 Descending Cleveland Center
Wed 08:27:45 AM 41.7467 -82.8069 314° West 298 343 12,000 -393 Descending Cleveland Center
Wed 08:28:03 AM 41.7628 -82.8325 310° West 280 322 12,000  Level Cleveland Center
Wed 08:28:45 AM 41.8036 -82.8756 322° Northwest 287 330 12,000  Level Cleveland Center
Wed 08:29:03 AM 41.8239 -82.8986 320° Northwest 277 319 12,000  Level Cleveland Center
Wed 08:29:45 AM 41.8606 -82.9447 317° Northwest 280 322 12,000  Level Cleveland Center
Wed 08:30:04 AM 41.8808 -82.9678 320° Northwest 278 320 12,000  Level Cleveland Center
Wed 08:30:45 AM 41.9197 -83.0139 319° Northwest 275 316 12,000  Level Cleveland Center
Wed 08:31:05 AM 41.9419 -83.0397 319° Northwest 273 314 12,000  Level Cleveland Center
Wed 08:31:45 AM 41.9725 -83.0800 316° Northwest 270 311 12,000 -98 Level Cleveland Center
Wed 08:32:06 AM 41.9947 -83.1061 319° Northwest 263 303 11,900 -800 Descending Cleveland Center
Wed 08:32:45 AM 42.0253 -83.1436 318° Northwest 265 305 11,200 -885 Descending Cleveland Center
Wed 08:33:07 AM 42.0475 -83.1669 322° Northwest 250 288 11,000 -200 Descending Cleveland Center
Wed 08:33:45 AM 42.0800 -83.2075 317° Northwest 260 299 11,000  Level Cleveland Center
Wed 08:34:08 AM 42.1069 -83.2142 350° North 251 289 11,000 -643 Level Cleveland Center
Wed 08:35:09 AM 42.1714 -83.2222 355° North 232 267 10,100 -1,033 Descending Cleveland Center
Wed 08:36:10 AM 42.2369 -83.1775 27° Northeast 253 291 8,900 -1,131 Descending Cleveland Center
Wed 08:37:11 AM 42.3028 -83.1325 27° Northeast 253 291 7,800 -1,131 Descending Cleveland Center
Wed 08:38:12 AM 42.3592 -83.1261 North 197 227 6,600 -1,475 Descending Cleveland Center
Wed 08:39:13 AM 42.3597 -83.1936 271° West 203 234 4,800 -1,721 Descending Cleveland Center
Wed 08:40:14 AM 42.3269 -83.2569 235° Southwest 205 236 3,100 -1,131 Descending Cleveland Center
Wed 08:41:15 AM 42.2781 -83.2942 209° Southwest 164 189 2,500 -885 Descending Cleveland Center
Wed 08:42:16 AM 42.2464 -83.3153 206° Southwest 129 148 1,300 -1,180 Descending Cleveland Center

Login

Don't have an account? Register now (free) for customized features, flight alerts, and more!